DLH3KA EDDW-EDDM
Flight info
| Callsign | DLH3KA |
|---|---|
| Flight time | 0h 59m |
| Altitude | 35000 |
| Route | NIE6Z NIE Z88 SAS DCT KUMER DCT SODRO/N0438F310 T703 LULAR/N0426F300 T105 LANDU LANDU2A |
| Aircraft | A343/H-SDE2E3FGHIJ4J5M1RWXY/LB1D1 |
Departure
| Time | 2026-05-04 14:40 |
|---|---|
| Airport | Bremen Airport (EDDW) |
Arrival
| Time | 2026-05-04 15:39 |
|---|---|
| Airport | Munich Airport (EDDM) |
| Time | Latitude | Longitude | Altitude | Speed | Heading |
|---|---|---|---|---|---|
| 2026-05-04 13:52 | 53.05256 | 8.78091 | 26 ft | 0 kts | 347° |
| 2026-05-04 14:25 | 53.05251 | 8.78093 | 26 ft | 3 kts | 347° |
| 2026-05-04 14:26 | 53.05226 | 8.78103 | 32 ft | 3 kts | 347° |
| 2026-05-04 14:26 | 53.05204 | 8.78106 | 32 ft | 4 kts | 30° |
| 2026-05-04 14:26 | 53.05189 | 8.78077 | 32 ft | 4 kts | 69° |
| 2026-05-04 14:26 | 53.05185 | 8.78058 | 32 ft | 3 kts | 73° |
| 2026-05-04 14:30 | 53.05193 | 8.78123 | 30 ft | 6 kts | 85° |
| 2026-05-04 14:31 | 53.05187 | 8.78210 | 28 ft | 9 kts | 100° |
| 2026-05-04 14:31 | 53.05120 | 8.78451 | 31 ft | 14 kts | 131° |
| 2026-05-04 14:32 | 53.04950 | 8.78654 | 30 ft | 14 kts | 175° |
| 2026-05-04 14:32 | 53.04864 | 8.78675 | 30 ft | 8 kts | 144° |
| 2026-05-04 14:32 | 53.04853 | 8.78765 | 28 ft | 10 kts | 87° |
| 2026-05-04 14:32 | 53.04857 | 8.78896 | 24 ft | 13 kts | 88° |
| 2026-05-04 14:33 | 53.04860 | 8.79061 | 30 ft | 15 kts | 88° |
| 2026-05-04 14:33 | 53.04864 | 8.79241 | 27 ft | 16 kts | 88° |
| 2026-05-04 14:33 | 53.04869 | 8.79441 | 27 ft | 19 kts | 88° |
| 2026-05-04 14:33 | 53.04875 | 8.79666 | 28 ft | 20 kts | 88° |
| 2026-05-04 14:34 | 53.04880 | 8.79901 | 27 ft | 21 kts | 87° |
| 2026-05-04 14:34 | 53.04885 | 8.80100 | 26 ft | 18 kts | 88° |
| 2026-05-04 14:34 | 53.04887 | 8.80178 | 31 ft | 1 kts | 88° |
| 2026-05-04 14:34 | 53.04887 | 8.80209 | 30 ft | 4 kts | 88° |
| 2026-05-04 14:35 | 53.04889 | 8.80278 | 26 ft | 8 kts | 88° |
| 2026-05-04 14:35 | 53.04885 | 8.80388 | 30 ft | 11 kts | 105° |
| 2026-05-04 14:35 | 53.04817 | 8.80464 | 24 ft | 12 kts | 184° |
| 2026-05-04 14:35 | 53.04791 | 8.80461 | 25 ft | 0 kts | 184° |
| 2026-05-04 14:36 | 53.04786 | 8.80460 | 25 ft | 4 kts | 184° |
| 2026-05-04 14:36 | 53.04747 | 8.80461 | 27 ft | 6 kts | 167° |
| 2026-05-04 14:36 | 53.04722 | 8.80511 | 27 ft | 6 kts | 113° |
| 2026-05-04 14:37 | 53.04723 | 8.80606 | 26 ft | 11 kts | 85° |
| 2026-05-04 14:37 | 53.04731 | 8.80761 | 28 ft | 14 kts | 81° |
| 2026-05-04 14:37 | 53.04765 | 8.80824 | 28 ft | 7 kts | 33° |
| 2026-05-04 14:37 | 53.04785 | 8.80878 | 29 ft | 1 kts | 92° |
| 2026-05-04 14:38 | 53.04780 | 8.80890 | 29 ft | 1 kts | 115° |
| 2026-05-04 14:38 | 53.04761 | 8.80919 | 27 ft | 6 kts | 145° |
| 2026-05-04 14:38 | 53.04744 | 8.80916 | 27 ft | 2 kts | 201° |
| 2026-05-04 14:38 | 53.04735 | 8.80893 | 27 ft | 4 kts | 241° |
| 2026-05-04 14:39 | 53.04733 | 8.80859 | 31 ft | 1 kts | 270° |
| 2026-05-04 14:39 | 53.04733 | 8.80841 | 31 ft | 0 kts | 270° |
| 2026-05-04 14:40 | 53.04710 | 8.79717 | 25 ft | 140 kts | 268° |
| 2026-05-04 14:40 | 53.04665 | 8.77851 | 710 ft | 173 kts | 269° |
| 2026-05-04 14:40 | 53.04346 | 8.75750 | 1480 ft | 206 kts | 243° |
| 2026-05-04 14:40 | 53.03240 | 8.74172 | 2257 ft | 227 kts | 205° |
| 2026-05-04 14:41 | 53.01678 | 8.73281 | 3218 ft | 245 kts | 198° |
| 2026-05-04 14:41 | 52.99985 | 8.72762 | 4485 ft | 252 kts | 183° |
| 2026-05-04 14:41 | 52.96792 | 8.75267 | 6902 ft | 273 kts | 136° |
| 2026-05-04 14:42 | 52.94206 | 8.80117 | 9176 ft | 287 kts | 134° |
| 2026-05-04 14:42 | 52.93324 | 8.81775 | 9923 ft | 291 kts | 134° |
| 2026-05-04 14:42 | 52.91944 | 8.84333 | 10718 ft | 307 kts | 135° |
| 2026-05-04 14:43 | 52.90453 | 8.87062 | 11225 ft | 331 kts | 135° |
| 2026-05-04 14:43 | 52.88851 | 8.89979 | 11942 ft | 344 kts | 135° |
| 2026-05-04 14:43 | 52.87245 | 8.92900 | 12778 ft | 352 kts | 135° |
| 2026-05-04 14:43 | 52.85574 | 8.95933 | 13675 ft | 360 kts | 135° |
| 2026-05-04 14:44 | 52.83870 | 8.99018 | 14510 ft | 366 kts | 135° |
| 2026-05-04 14:44 | 52.82112 | 9.02197 | 15388 ft | 371 kts | 135° |
| 2026-05-04 14:44 | 52.80359 | 9.05361 | 16276 ft | 376 kts | 135° |
| 2026-05-04 14:44 | 52.78608 | 9.08515 | 17160 ft | 380 kts | 136° |
| 2026-05-04 14:45 | 52.76812 | 9.11747 | 18086 ft | 383 kts | 136° |
| 2026-05-04 14:45 | 52.74998 | 9.15007 | 18884 ft | 387 kts | 136° |
| 2026-05-04 14:45 | 52.73161 | 9.18301 | 19594 ft | 393 kts | 137° |
| 2026-05-04 14:45 | 52.71296 | 9.21649 | 20313 ft | 399 kts | 137° |
| 2026-05-04 14:46 | 52.69404 | 9.25036 | 21030 ft | 404 kts | 137° |
| 2026-05-04 14:46 | 52.67483 | 9.28465 | 21742 ft | 409 kts | 137° |
| 2026-05-04 14:46 | 52.65543 | 9.31927 | 22440 ft | 414 kts | 138° |
| 2026-05-04 14:46 | 52.63576 | 9.35421 | 23101 ft | 418 kts | 138° |
| 2026-05-04 14:47 | 52.61496 | 9.38751 | 23814 ft | 417 kts | 143° |
| 2026-05-04 14:47 | 52.59310 | 9.41924 | 24389 ft | 420 kts | 145° |
| 2026-05-04 14:47 | 52.57068 | 9.45017 | 24958 ft | 423 kts | 146° |
| 2026-05-04 14:47 | 52.54788 | 9.48097 | 25502 ft | 426 kts | 147° |
| 2026-05-04 14:48 | 52.52486 | 9.51192 | 26055 ft | 429 kts | 147° |
| 2026-05-04 14:48 | 52.50172 | 9.54312 | 26583 ft | 432 kts | 147° |
| 2026-05-04 14:48 | 52.47846 | 9.57465 | 27128 ft | 435 kts | 147° |
| 2026-05-04 14:48 | 52.45533 | 9.60613 | 27641 ft | 439 kts | 147° |
| 2026-05-04 14:49 | 52.43178 | 9.63823 | 28171 ft | 442 kts | 147° |
| 2026-05-04 14:49 | 52.40807 | 9.67057 | 28648 ft | 445 kts | 147° |
| 2026-05-04 14:49 | 52.38416 | 9.70316 | 29128 ft | 448 kts | 147° |
| 2026-05-04 14:49 | 52.36011 | 9.73588 | 29566 ft | 451 kts | 147° |
| 2026-05-04 14:50 | 52.33604 | 9.76862 | 30195 ft | 450 kts | 147° |
| 2026-05-04 14:50 | 52.31189 | 9.80141 | 30586 ft | 453 kts | 147° |
| 2026-05-04 14:50 | 52.28751 | 9.83441 | 30907 ft | 457 kts | 147° |
| 2026-05-04 14:50 | 52.26294 | 9.86750 | 31245 ft | 459 kts | 148° |
| 2026-05-04 14:51 | 52.23716 | 9.89801 | 31590 ft | 458 kts | 152° |
| 2026-05-04 14:51 | 52.21062 | 9.92739 | 31819 ft | 463 kts | 153° |
| 2026-05-04 14:51 | 52.18369 | 9.95648 | 32195 ft | 464 kts | 153° |
| 2026-05-04 14:51 | 52.15673 | 9.98526 | 32693 ft | 463 kts | 153° |
| 2026-05-04 14:52 | 52.13004 | 10.01361 | 33153 ft | 462 kts | 154° |
| 2026-05-04 14:52 | 52.10307 | 10.04221 | 33623 ft | 462 kts | 154° |
| 2026-05-04 14:52 | 52.07621 | 10.07068 | 34086 ft | 461 kts | 153° |
| 2026-05-04 14:52 | 52.04938 | 10.09914 | 34515 ft | 459 kts | 153° |
| 2026-05-04 14:53 | 52.02267 | 10.12745 | 34860 ft | 460 kts | 153° |
| 2026-05-04 14:53 | 51.99581 | 10.15586 | 34950 ft | 459 kts | 153° |
| 2026-05-04 14:53 | 51.94279 | 10.21198 | 34963 ft | 452 kts | 153° |
| 2026-05-04 14:54 | 51.89008 | 10.26753 | 34963 ft | 452 kts | 153° |
| 2026-05-04 14:54 | 51.83721 | 10.32301 | 34964 ft | 455 kts | 153° |
| 2026-05-04 14:55 | 51.78433 | 10.37836 | 34969 ft | 456 kts | 153° |
| 2026-05-04 14:55 | 51.73111 | 10.43397 | 34968 ft | 455 kts | 153° |
| 2026-05-04 14:56 | 51.67792 | 10.48941 | 34968 ft | 455 kts | 153° |
| 2026-05-04 14:56 | 51.62468 | 10.54473 | 34970 ft | 455 kts | 153° |
| 2026-05-04 14:57 | 51.57146 | 10.59986 | 34968 ft | 455 kts | 153° |
| 2026-05-04 14:57 | 51.51838 | 10.65507 | 34967 ft | 453 kts | 151° |
| 2026-05-04 14:58 | 51.46684 | 10.71358 | 34974 ft | 454 kts | 149° |
| 2026-05-04 14:58 | 51.41571 | 10.77311 | 34973 ft | 453 kts | 149° |
| 2026-05-04 14:59 | 51.36439 | 10.83201 | 34972 ft | 453 kts | 150° |
| 2026-05-04 15:00 | 51.28752 | 10.91904 | 34971 ft | 453 kts | 150° |
| 2026-05-04 15:00 | 51.23600 | 10.97704 | 34974 ft | 452 kts | 150° |
| 2026-05-04 15:01 | 51.15865 | 11.06384 | 34972 ft | 454 kts | 150° |
| 2026-05-04 15:01 | 51.10690 | 11.12174 | 34970 ft | 454 kts | 150° |
| 2026-05-04 15:02 | 51.05516 | 11.17949 | 34970 ft | 454 kts | 150° |
| 2026-05-04 15:02 | 51.00335 | 11.23715 | 34968 ft | 455 kts | 150° |
| 2026-05-04 15:03 | 50.95186 | 11.29429 | 34976 ft | 455 kts | 150° |
| 2026-05-04 15:03 | 50.89998 | 11.35169 | 34976 ft | 455 kts | 150° |
| 2026-05-04 15:04 | 50.84803 | 11.40901 | 34968 ft | 455 kts | 149° |
| 2026-05-04 15:04 | 50.79609 | 11.46616 | 34969 ft | 455 kts | 150° |
| 2026-05-04 15:05 | 50.74412 | 11.52318 | 34973 ft | 454 kts | 149° |
| 2026-05-04 15:05 | 50.69223 | 11.57998 | 34976 ft | 454 kts | 149° |
| 2026-05-04 15:06 | 50.64030 | 11.63665 | 34972 ft | 454 kts | 149° |
| 2026-05-04 15:07 | 50.56266 | 11.72110 | 34972 ft | 454 kts | 149° |
| 2026-05-04 15:07 | 50.51062 | 11.77753 | 34979 ft | 454 kts | 149° |
| 2026-05-04 15:08 | 50.45745 | 11.83039 | 34989 ft | 449 kts | 158° |
| 2026-05-04 15:08 | 50.40076 | 11.87129 | 34991 ft | 448 kts | 160° |
| 2026-05-04 15:09 | 50.34351 | 11.90990 | 34990 ft | 448 kts | 161° |
| 2026-05-04 15:09 | 50.28613 | 11.94819 | 34994 ft | 448 kts | 161° |
| 2026-05-04 15:10 | 50.20062 | 12.00555 | 34992 ft | 448 kts | 161° |
| 2026-05-04 15:11 | 50.11462 | 12.06328 | 34983 ft | 448 kts | 160° |
| 2026-05-04 15:11 | 50.05729 | 12.10165 | 34976 ft | 448 kts | 160° |
| 2026-05-04 15:12 | 50.00003 | 12.13986 | 34964 ft | 448 kts | 160° |
| 2026-05-04 15:12 | 49.94297 | 12.17771 | 34961 ft | 449 kts | 161° |
| 2026-05-04 15:13 | 49.88548 | 12.21578 | 34963 ft | 449 kts | 161° |
| 2026-05-04 15:13 | 49.82795 | 12.25380 | 34959 ft | 449 kts | 161° |
| 2026-05-04 15:14 | 49.77040 | 12.29177 | 34952 ft | 449 kts | 161° |
| 2026-05-04 15:14 | 49.71427 | 12.33499 | 34955 ft | 454 kts | 149° |
| 2026-05-04 15:15 | 49.66271 | 12.39200 | 34952 ft | 456 kts | 146° |
| 2026-05-04 15:15 | 49.61260 | 12.45080 | 34666 ft | 452 kts | 146° |
| 2026-05-04 15:16 | 49.56206 | 12.51021 | 32740 ft | 464 kts | 146° |
| 2026-05-04 15:16 | 49.53617 | 12.54041 | 31904 ft | 466 kts | 146° |
| 2026-05-04 15:16 | 49.48434 | 12.60061 | 30570 ft | 462 kts | 146° |
| 2026-05-04 15:17 | 49.45880 | 12.63020 | 30030 ft | 457 kts | 146° |
| 2026-05-04 15:17 | 49.40915 | 12.68899 | 28937 ft | 441 kts | 153° |
| 2026-05-04 15:17 | 49.38195 | 12.70918 | 28419 ft | 429 kts | 163° |
| 2026-05-04 15:18 | 49.35342 | 12.72025 | 27927 ft | 418 kts | 175° |
| 2026-05-04 15:18 | 49.32517 | 12.72171 | 27431 ft | 407 kts | 187° |
| 2026-05-04 15:18 | 49.29771 | 12.71384 | 26864 ft | 399 kts | 200° |
| 2026-05-04 15:19 | 49.24639 | 12.67883 | 26296 ft | 404 kts | 207° |
| 2026-05-04 15:19 | 49.22080 | 12.65980 | 26041 ft | 414 kts | 208° |
| 2026-05-04 15:19 | 49.16962 | 12.62064 | 25328 ft | 404 kts | 208° |
| 2026-05-04 15:20 | 49.14453 | 12.60182 | 24820 ft | 399 kts | 207° |
| 2026-05-04 15:20 | 49.11965 | 12.58354 | 24283 ft | 394 kts | 207° |
| 2026-05-04 15:20 | 49.09496 | 12.56568 | 23777 ft | 390 kts | 207° |
| 2026-05-04 15:20 | 49.07049 | 12.54815 | 23217 ft | 387 kts | 206° |
| 2026-05-04 15:21 | 49.04619 | 12.53086 | 22680 ft | 382 kts | 206° |
| 2026-05-04 15:21 | 49.02228 | 12.51386 | 22180 ft | 378 kts | 206° |
| 2026-05-04 15:21 | 48.97546 | 12.48036 | 21265 ft | 368 kts | 207° |
| 2026-05-04 15:22 | 48.95364 | 12.46039 | 21255 ft | 373 kts | 217° |
| 2026-05-04 15:22 | 48.93375 | 12.43386 | 21186 ft | 385 kts | 225° |
| 2026-05-04 15:22 | 48.89818 | 12.37382 | 20391 ft | 382 kts | 230° |
| 2026-05-04 15:23 | 48.88144 | 12.34243 | 20158 ft | 381 kts | 231° |
| 2026-05-04 15:23 | 48.86490 | 12.31101 | 19896 ft | 379 kts | 231° |
| 2026-05-04 15:23 | 48.84843 | 12.27988 | 19646 ft | 376 kts | 231° |
| 2026-05-04 15:23 | 48.83198 | 12.24910 | 19432 ft | 375 kts | 230° |
| 2026-05-04 15:24 | 48.79897 | 12.18826 | 18940 ft | 372 kts | 230° |
| 2026-05-04 15:24 | 48.76601 | 12.12816 | 18477 ft | 369 kts | 230° |
| 2026-05-04 15:25 | 48.74959 | 12.09829 | 18245 ft | 368 kts | 230° |
| 2026-05-04 15:25 | 48.73322 | 12.06856 | 17971 ft | 366 kts | 229° |
| 2026-05-04 15:25 | 48.71713 | 12.03935 | 17717 ft | 365 kts | 229° |
| 2026-05-04 15:26 | 48.68470 | 11.98055 | 17198 ft | 362 kts | 229° |
| 2026-05-04 15:26 | 48.66851 | 11.95122 | 16923 ft | 361 kts | 229° |
| 2026-05-04 15:26 | 48.63675 | 11.89379 | 16324 ft | 346 kts | 229° |
| 2026-05-04 15:27 | 48.62146 | 11.86619 | 15910 ft | 340 kts | 229° |
| 2026-05-04 15:27 | 48.59151 | 11.81220 | 15101 ft | 333 kts | 229° |
| 2026-05-04 15:28 | 48.56181 | 11.75883 | 14278 ft | 330 kts | 228° |
| 2026-05-04 15:28 | 48.54709 | 11.73239 | 13842 ft | 327 kts | 228° |
| 2026-05-04 15:28 | 48.51826 | 11.68069 | 12962 ft | 322 kts | 228° |
| 2026-05-04 15:29 | 48.50383 | 11.65487 | 12560 ft | 320 kts | 228° |
| 2026-05-04 15:30 | 48.45176 | 11.56185 | 11140 ft | 311 kts | 228° |
| 2026-05-04 15:30 | 48.42415 | 11.47008 | 10227 ft | 281 kts | 257° |
| 2026-05-04 15:31 | 48.41976 | 11.42152 | 9179 ft | 279 kts | 261° |
| 2026-05-04 15:31 | 48.41777 | 11.39289 | 8605 ft | 279 kts | 262° |
| 2026-05-04 15:32 | 48.39848 | 11.31559 | 7110 ft | 263 kts | 213° |
| 2026-05-04 15:32 | 48.36323 | 11.30944 | 6136 ft | 261 kts | 159° |
| 2026-05-04 15:33 | 48.34053 | 11.34610 | 5374 ft | 234 kts | 116° |
| 2026-05-04 15:34 | 48.33551 | 11.41549 | 4993 ft | 218 kts | 83° |
| 2026-05-04 15:34 | 48.33738 | 11.43812 | 5000 ft | 218 kts | 83° |
| 2026-05-04 15:34 | 48.34093 | 11.48342 | 4999 ft | 218 kts | 83° |
| 2026-05-04 15:35 | 48.34435 | 11.52894 | 4599 ft | 221 kts | 83° |
| 2026-05-04 15:35 | 48.34614 | 11.55209 | 4285 ft | 224 kts | 83° |
| 2026-05-04 15:35 | 48.34794 | 11.57537 | 3991 ft | 221 kts | 83° |
| 2026-05-04 15:36 | 48.35118 | 11.61727 | 3426 ft | 186 kts | 83° |
| 2026-05-04 15:36 | 48.35259 | 11.63552 | 3191 ft | 167 kts | 83° |
| 2026-05-04 15:36 | 48.35386 | 11.65200 | 2979 ft | 151 kts | 83° |
| 2026-05-04 15:37 | 48.35502 | 11.66711 | 2781 ft | 141 kts | 82° |
| 2026-05-04 15:37 | 48.35614 | 11.68159 | 2624 ft | 140 kts | 83° |
| 2026-05-04 15:37 | 48.35725 | 11.69617 | 2444 ft | 141 kts | 82° |
| 2026-05-04 15:37 | 48.35837 | 11.71073 | 2254 ft | 140 kts | 82° |
| 2026-05-04 15:38 | 48.35949 | 11.72524 | 2070 ft | 140 kts | 82° |
| 2026-05-04 15:38 | 48.36060 | 11.73974 | 1871 ft | 139 kts | 81° |
| 2026-05-04 15:38 | 48.36172 | 11.75421 | 1676 ft | 139 kts | 82° |
| 2026-05-04 15:38 | 48.36282 | 11.76841 | 1515 ft | 136 kts | 80° |
| 2026-05-04 15:39 | 48.36377 | 11.78198 | 1462 ft | 120 kts | 79° |
| 2026-05-04 15:39 | 48.36463 | 11.79184 | 1466 ft | 69 kts | 83° |
| 2026-05-04 15:39 | 48.36502 | 11.79955 | 1464 ft | 30 kts | 98° |
| 2026-05-04 15:40 | 48.36433 | 11.80248 | 1461 ft | 29 kts | 114° |
| 2026-05-04 15:40 | 48.36382 | 11.80421 | 1465 ft | 0 kts | 114° |
| 2026-05-04 15:41 | 48.36381 | 11.80423 | 1464 ft | 1 kts | 114° |
| 2026-05-04 15:41 | 48.36380 | 11.80428 | 1460 ft | 0 kts | 114° |
| 2026-05-04 15:41 | 48.36378 | 11.80432 | 1461 ft | 2 kts | 114° |
| 2026-05-04 15:41 | 48.36369 | 11.80463 | 1462 ft | 5 kts | 114° |
| 2026-05-04 15:42 | 48.36323 | 11.80557 | 1462 ft | 17 kts | 141° |
| 2026-05-04 15:42 | 48.36211 | 11.80579 | 1464 ft | 13 kts | 199° |
| 2026-05-04 15:42 | 48.36180 | 11.80474 | 1472 ft | 12 kts | 264° |
| 2026-05-04 15:42 | 48.36170 | 11.80331 | 1470 ft | 15 kts | 264° |
| 2026-05-04 15:43 | 48.36159 | 11.80159 | 1466 ft | 18 kts | 264° |
| 2026-05-04 15:43 | 48.36145 | 11.79962 | 1467 ft | 20 kts | 264° |
| 2026-05-04 15:43 | 48.36143 | 11.79928 | 1467 ft | 2 kts | 264° |
| 2026-05-04 15:43 | 48.36141 | 11.79894 | 1466 ft | 5 kts | 265° |
| 2026-05-04 15:44 | 48.36155 | 11.79862 | 1461 ft | 4 kts | 319° |
| 2026-05-04 15:44 | 48.36189 | 11.79844 | 1463 ft | 7 kts | 342° |
| 2026-05-04 15:44 | 48.36234 | 11.79801 | 1464 ft | 8 kts | 301° |
| 2026-05-04 15:44 | 48.36233 | 11.79709 | 1465 ft | 10 kts | 265° |
| 2026-05-04 15:45 | 48.36226 | 11.79586 | 1465 ft | 13 kts | 264° |
| 2026-05-04 15:45 | 48.36188 | 11.79478 | 1462 ft | 10 kts | 202° |
| 2026-05-04 15:45 | 48.36114 | 11.79479 | 1462 ft | 12 kts | 177° |
| 2026-05-04 15:45 | 48.36029 | 11.79488 | 1465 ft | 8 kts | 175° |
| 2026-05-04 15:46 | 48.36016 | 11.79490 | 1466 ft | 0 kts | 175° |
| 2026-05-04 15:47 | 48.36004 | 11.79491 | 1466 ft | 4 kts | 175° |
| 2026-05-04 15:47 | 48.35967 | 11.79497 | 1469 ft | 7 kts | 171° |
| 2026-05-04 15:48 | 48.35908 | 11.79510 | 1465 ft | 10 kts | 173° |
| 2026-05-04 15:48 | 48.35826 | 11.79525 | 1465 ft | 13 kts | 173° |
| 2026-05-04 15:48 | 48.35601 | 11.79565 | 1466 ft | 19 kts | 174° |
| 2026-05-04 15:49 | 48.35486 | 11.79565 | 1466 ft | 16 kts | 200° |
| 2026-05-04 15:49 | 48.35384 | 11.79472 | 1466 ft | 18 kts | 194° |
| 2026-05-04 15:49 | 48.35254 | 11.79490 | 1466 ft | 20 kts | 173° |
| 2026-05-04 15:49 | 48.35138 | 11.79509 | 1466 ft | 15 kts | 173° |
| 2026-05-04 15:50 | 48.35086 | 11.79512 | 1465 ft | 3 kts | 199° |
| 2026-05-04 15:50 | 48.35074 | 11.79487 | 1460 ft | 4 kts | 242° |
| 2026-05-04 15:50 | 48.35068 | 11.79438 | 1464 ft | 6 kts | 262° |
| 2026-05-04 15:50 | 48.35065 | 11.79400 | 1467 ft | 1 kts | 263° |
| 2026-05-04 15:51 | 48.35063 | 11.79373 | 1466 ft | 3 kts | 263° |
| 2026-05-04 15:51 | 48.35062 | 11.79362 | 1465 ft | 0 kts | 263° |